sensor_id;sensor_type;location;lat;lon;timestamp;P1;durP1;ratioP1;P2;durP2;ratioP2
13171;SDS011;6651;53.200;10.432;2023-04-25T00:01:15;7.60;;;6.25;;
13171;SDS011;6651;53.200;10.432;2023-04-25T00:03:41;6.68;;;5.55;;
13171;SDS011;6651;53.200;10.432;2023-04-25T00:06:07;8.77;;;5.97;;
13171;SDS011;6651;53.200;10.432;2023-04-25T00:08:33;8.27;;;6.38;;
13171;SDS011;6651;53.200;10.432;2023-04-25T00:11:00;8.65;;;6.28;;
13171;SDS011;6651;53.200;10.432;2023-04-25T00:13:26;9.07;;;6.53;;
13171;SDS011;6651;53.200;10.432;2023-04-25T00:15:52;8.27;;;5.80;;
13171;SDS011;6651;53.200;10.432;2023-04-25T00:18:19;7.45;;;5.75;;
13171;SDS011;6651;53.200;10.432;2023-04-25T00:20:45;8.73;;;6.13;;
13171;SDS011;6651;53.200;10.432;2023-04-25T00:23:15;7.85;;;5.50;;
13171;SDS011;6651;53.200;10.432;2023-04-25T00:25:46;7.82;;;5.57;;
13171;SDS011;6651;53.200;10.432;2023-04-25T00:28:12;8.40;;;5.40;;
13171;SDS011;6651;53.200;10.432;2023-04-25T00:30:39;6.45;;;5.25;;
13171;SDS011;6651;53.200;10.432;2023-04-25T00:33:05;8.75;;;5.75;;
13171;SDS011;6651;53.200;10.432;2023-04-25T00:35:31;6.97;;;5.70;;
13171;SDS011;6651;53.200;10.432;2023-04-25T00:37:57;9.70;;;6.10;;
13171;SDS011;6651;53.200;10.432;2023-04-25T00:40:23;7.30;;;5.35;;
13171;SDS011;6651;53.200;10.432;2023-04-25T00:42:50;8.48;;;5.88;;
13171;SDS011;6651;53.200;10.432;2023-04-25T00:45:17;9.25;;;6.10;;
13171;SDS011;6651;53.200;10.432;2023-04-25T00:47:43;6.68;;;5.97;;
13171;SDS011;6651;53.200;10.432;2023-04-25T00:50:11;9.82;;;6.32;;
13171;SDS011;6651;53.200;10.432;2023-04-25T00:52:41;7.57;;;6.40;;
13171;SDS011;6651;53.200;10.432;2023-04-25T00:55:09;7.75;;;6.40;;
13171;SDS011;6651;53.200;10.432;2023-04-25T00:57:35;9.25;;;6.57;;
13171;SDS011;6651;53.200;10.432;2023-04-25T01:00:02;9.75;;;6.85;;
13171;SDS011;6651;53.200;10.432;2023-04-25T01:02:30;9.35;;;7.13;;
13171;SDS011;6651;53.200;10.432;2023-04-25T01:04:56;9.63;;;6.72;;
13171;SDS011;6651;53.200;10.432;2023-04-25T01:07:22;9.63;;;6.97;;
13171;SDS011;6651;53.200;10.432;2023-04-25T01:09:48;9.82;;;7.60;;
13171;SDS011;6651;53.200;10.432;2023-04-25T01:12:14;8.52;;;7.22;;
13171;SDS011;6651;53.200;10.432;2023-04-25T01:14:40;10.35;;;7.43;;
13171;SDS011;6651;53.200;10.432;2023-04-25T01:17:06;12.18;;;7.30;;
13171;SDS011;6651;53.200;10.432;2023-04-25T01:19:34;9.40;;;7.32;;
13171;SDS011;6651;53.200;10.432;2023-04-25T01:22:00;8.30;;;7.50;;
13171;SDS011;6651;53.200;10.432;2023-04-25T01:24:26;9.52;;;7.25;;
13171;SDS011;6651;53.200;10.432;2023-04-25T01:26:53;9.18;;;6.82;;
13171;SDS011;6651;53.200;10.432;2023-04-25T01:32:25;7.47;;;5.47;;
13171;SDS011;6651;53.200;10.432;2023-04-25T01:34:51;8.73;;;5.20;;
13171;SDS011;6651;53.200;10.432;2023-04-25T01:37:17;9.88;;;5.05;;
13171;SDS011;6651;53.200;10.432;2023-04-25T01:39:43;9.93;;;4.80;;
13171;SDS011;6651;53.200;10.432;2023-04-25T01:42:09;11.00;;;5.20;;
13171;SDS011;6651;53.200;10.432;2023-04-25T01:44:35;10.93;;;4.57;;
13171;SDS011;6651;53.200;10.432;2023-04-25T01:47:01;10.00;;;4.50;;
13171;SDS011;6651;53.200;10.432;2023-04-25T01:49:28;10.95;;;4.57;;
13171;SDS011;6651;53.200;10.432;2023-04-25T01:51:54;10.45;;;4.40;;
13171;SDS011;6651;53.200;10.432;2023-04-25T01:54:20;14.27;;;4.85;;
13171;SDS011;6651;53.200;10.432;2023-04-25T01:56:49;12.50;;;4.45;;
13171;SDS011;6651;53.200;10.432;2023-04-25T01:59:16;12.52;;;4.70;;
13171;SDS011;6651;53.200;10.432;2023-04-25T02:01:42;13.68;;;4.00;;
13171;SDS011;6651;53.200;10.432;2023-04-25T02:04:08;11.73;;;4.28;;
13171;SDS011;6651;53.200;10.432;2023-04-25T02:06:34;13.10;;;4.72;;
13171;SDS011;6651;53.200;10.432;2023-04-25T02:09:00;14.38;;;4.85;;
13171;SDS011;6651;53.200;10.432;2023-04-25T02:14:36;15.82;;;4.78;;
13171;SDS011;6651;53.200;10.432;2023-04-25T02:17:02;15.40;;;4.80;;
13171;SDS011;6651;53.200;10.432;2023-04-25T02:19:28;13.50;;;4.57;;
13171;SDS011;6651;53.200;10.432;2023-04-25T02:21:54;15.43;;;4.82;;
13171;SDS011;6651;53.200;10.432;2023-04-25T02:24:22;11.35;;;4.35;;
13171;SDS011;6651;53.200;10.432;2023-04-25T02:26:48;11.75;;;4.15;;
13171;SDS011;6651;53.200;10.432;2023-04-25T02:29:14;12.57;;;4.45;;
13171;SDS011;6651;53.200;10.432;2023-04-25T02:31:41;17.98;;;5.25;;
13171;SDS011;6651;53.200;10.432;2023-04-25T02:34:07;14.23;;;5.25;;
13171;SDS011;6651;53.200;10.432;2023-04-25T02:36:33;16.35;;;4.43;;
13171;SDS011;6651;53.200;10.432;2023-04-25T02:39:00;15.32;;;4.68;;
13171;SDS011;6651;53.200;10.432;2023-04-25T02:41:27;16.45;;;5.28;;
13171;SDS011;6651;53.200;10.432;2023-04-25T02:43:53;17.60;;;5.00;;
13171;SDS011;6651;53.200;10.432;2023-04-25T02:46:19;16.30;;;5.20;;
13171;SDS011;6651;53.200;10.432;2023-04-25T02:48:46;18.42;;;5.13;;
13171;SDS011;6651;53.200;10.432;2023-04-25T02:51:12;20.50;;;5.43;;
13171;SDS011;6651;53.200;10.432;2023-04-25T02:53:38;18.20;;;5.40;;
13171;SDS011;6651;53.200;10.432;2023-04-25T02:56:04;19.90;;;5.65;;
13171;SDS011;6651;53.200;10.432;2023-04-25T02:58:30;21.85;;;5.80;;
13171;SDS011;6651;53.200;10.432;2023-04-25T03:00:56;18.63;;;5.28;;
13171;SDS011;6651;53.200;10.432;2023-04-25T03:03:22;18.02;;;5.20;;
13171;SDS011;6651;53.200;10.432;2023-04-25T03:05:49;22.55;;;5.43;;
13171;SDS011;6651;53.200;10.432;2023-04-25T03:08:15;19.45;;;5.68;;
13171;SDS011;6651;53.200;10.432;2023-04-25T03:10:41;18.08;;;4.90;;
13171;SDS011;6651;53.200;10.432;2023-04-25T03:13:07;20.55;;;6.05;;
13171;SDS011;6651;53.200;10.432;2023-04-25T03:15:34;19.13;;;5.25;;
13171;SDS011;6651;53.200;10.432;2023-04-25T03:18:00;18.88;;;4.97;;
13171;SDS011;6651;53.200;10.432;2023-04-25T03:20:26;20.50;;;5.88;;
13171;SDS011;6651;53.200;10.432;2023-04-25T03:22:52;17.45;;;4.95;;
13171;SDS011;6651;53.200;10.432;2023-04-25T03:25:18;17.90;;;5.30;;
13171;SDS011;6651;53.200;10.432;2023-04-25T03:27:44;19.65;;;5.93;;
13171;SDS011;6651;53.200;10.432;2023-04-25T03:30:10;16.20;;;5.40;;
13171;SDS011;6651;53.200;10.432;2023-04-25T03:32:36;20.55;;;5.68;;
13171;SDS011;6651;53.200;10.432;2023-04-25T03:35:02;18.83;;;5.30;;
13171;SDS011;6651;53.200;10.432;2023-04-25T03:37:29;14.07;;;4.82;;
13171;SDS011;6651;53.200;10.432;2023-04-25T03:39:54;17.02;;;5.05;;
13171;SDS011;6651;53.200;10.432;2023-04-25T03:42:20;17.45;;;5.07;;
13171;SDS011;6651;53.200;10.432;2023-04-25T03:44:48;15.20;;;5.03;;
13171;SDS011;6651;53.200;10.432;2023-04-25T03:47:14;16.05;;;5.55;;
13171;SDS011;6651;53.200;10.432;2023-04-25T03:49:41;17.73;;;5.10;;
13171;SDS011;6651;53.200;10.432;2023-04-25T03:52:07;17.80;;;5.45;;
13171;SDS011;6651;53.200;10.432;2023-04-25T03:54:33;18.15;;;5.30;;
13171;SDS011;6651;53.200;10.432;2023-04-25T03:56:59;17.40;;;5.00;;
13171;SDS011;6651;53.200;10.432;2023-04-25T03:59:25;20.00;;;5.07;;
13171;SDS011;6651;53.200;10.432;2023-04-25T04:01:51;17.45;;;5.45;;
13171;SDS011;6651;53.200;10.432;2023-04-25T04:04:17;20.65;;;5.50;;
13171;SDS011;6651;53.200;10.432;2023-04-25T04:06:43;19.20;;;5.25;;
13171;SDS011;6651;53.200;10.432;2023-04-25T04:09:09;15.55;;;4.97;;
13171;SDS011;6651;53.200;10.432;2023-04-25T04:11:36;17.60;;;5.22;;
13171;SDS011;6651;53.200;10.432;2023-04-25T04:14:04;19.33;;;5.40;;
13171;SDS011;6651;53.200;10.432;2023-04-25T04:16:30;20.75;;;4.97;;
13171;SDS011;6651;53.200;10.432;2023-04-25T04:18:56;17.48;;;5.00;;
13171;SDS011;6651;53.200;10.432;2023-04-25T04:21:22;20.63;;;5.93;;
13171;SDS011;6651;53.200;10.432;2023-04-25T04:23:48;14.40;;;5.00;;
13171;SDS011;6651;53.200;10.432;2023-04-25T04:26:14;15.75;;;4.57;;
13171;SDS011;6651;53.200;10.432;2023-04-25T04:28:43;13.80;;;4.85;;
13171;SDS011;6651;53.200;10.432;2023-04-25T04:31:10;18.92;;;4.75;;
13171;SDS011;6651;53.200;10.432;2023-04-25T04:33:36;19.52;;;5.22;;
13171;SDS011;6651;53.200;10.432;2023-04-25T04:36:03;15.75;;;5.10;;
13171;SDS011;6651;53.200;10.432;2023-04-25T04:38:29;16.30;;;4.95;;
13171;SDS011;6651;53.200;10.432;2023-04-25T04:40:55;16.08;;;4.88;;
13171;SDS011;6651;53.200;10.432;2023-04-25T04:43:22;17.02;;;4.72;;
13171;SDS011;6651;53.200;10.432;2023-04-25T04:45:48;12.63;;;3.92;;
13171;SDS011;6651;53.200;10.432;2023-04-25T04:48:15;16.33;;;4.85;;
13171;SDS011;6651;53.200;10.432;2023-04-25T04:50:42;18.23;;;5.07;;
13171;SDS011;6651;53.200;10.432;2023-04-25T04:53:10;14.73;;;4.68;;
13171;SDS011;6651;53.200;10.432;2023-04-25T04:55:36;15.38;;;4.72;;
13171;SDS011;6651;53.200;10.432;2023-04-25T04:58:02;14.27;;;4.38;;
13171;SDS011;6651;53.200;10.432;2023-04-25T05:00:28;20.20;;;4.75;;
13171;SDS011;6651;53.200;10.432;2023-04-25T05:02:55;17.90;;;4.95;;
13171;SDS011;6651;53.200;10.432;2023-04-25T05:05:21;20.15;;;4.72;;
13171;SDS011;6651;53.200;10.432;2023-04-25T05:07:47;16.88;;;5.35;;
13171;SDS011;6651;53.200;10.432;2023-04-25T05:10:13;19.42;;;5.38;;
13171;SDS011;6651;53.200;10.432;2023-04-25T05:12:40;18.10;;;4.95;;
13171;SDS011;6651;53.200;10.432;2023-04-25T05:15:06;18.90;;;5.30;;
13171;SDS011;6651;53.200;10.432;2023-04-25T05:17:32;15.23;;;4.88;;
13171;SDS011;6651;53.200;10.432;2023-04-25T05:19:58;17.13;;;4.55;;
13171;SDS011;6651;53.200;10.432;2023-04-25T05:22:24;20.15;;;5.28;;
13171;SDS011;6651;53.200;10.432;2023-04-25T05:24:51;12.60;;;4.85;;
13171;SDS011;6651;53.200;10.432;2023-04-25T05:27:17;17.98;;;5.22;;
13171;SDS011;6651;53.200;10.432;2023-04-25T05:29:44;19.38;;;4.65;;
13171;SDS011;6651;53.200;10.432;2023-04-25T05:32:10;15.55;;;5.35;;
13171;SDS011;6651;53.200;10.432;2023-04-25T05:34:36;18.42;;;5.15;;
13171;SDS011;6651;53.200;10.432;2023-04-25T05:37:02;17.02;;;4.57;;
13171;SDS011;6651;53.200;10.432;2023-04-25T05:39:28;15.27;;;4.10;;
13171;SDS011;6651;53.200;10.432;2023-04-25T05:41:54;15.52;;;4.32;;
13171;SDS011;6651;53.200;10.432;2023-04-25T05:44:20;16.50;;;4.30;;
13171;SDS011;6651;53.200;10.432;2023-04-25T05:46:46;18.60;;;4.18;;
13171;SDS011;6651;53.200;10.432;2023-04-25T05:49:12;14.27;;;4.47;;
13171;SDS011;6651;53.200;10.432;2023-04-25T05:51:38;16.42;;;4.25;;
13171;SDS011;6651;53.200;10.432;2023-04-25T05:54:04;16.63;;;4.63;;
13171;SDS011;6651;53.200;10.432;2023-04-25T05:56:30;16.35;;;4.28;;
13171;SDS011;6651;53.200;10.432;2023-04-25T05:58:56;17.05;;;4.70;;
13171;SDS011;6651;53.200;10.432;2023-04-25T06:01:22;16.60;;;4.57;;
13171;SDS011;6651;53.200;10.432;2023-04-25T06:03:48;11.18;;;4.13;;
13171;SDS011;6651;53.200;10.432;2023-04-25T06:06:16;12.55;;;4.35;;
13171;SDS011;6651;53.200;10.432;2023-04-25T06:08:42;15.20;;;4.05;;
13171;SDS011;6651;53.200;10.432;2023-04-25T06:11:08;13.35;;;4.35;;
13171;SDS011;6651;53.200;10.432;2023-04-25T06:13:34;10.70;;;3.65;;
13171;SDS011;6651;53.200;10.432;2023-04-25T06:16:00;14.35;;;3.80;;
13171;SDS011;6651;53.200;10.432;2023-04-25T06:18:26;12.02;;;3.65;;
13171;SDS011;6651;53.200;10.432;2023-04-25T06:20:52;13.98;;;4.13;;
13171;SDS011;6651;53.200;10.432;2023-04-25T06:23:18;9.70;;;3.33;;
13171;SDS011;6651;53.200;10.432;2023-04-25T06:25:44;13.43;;;4.15;;
13171;SDS011;6651;53.200;10.432;2023-04-25T06:28:10;12.93;;;4.35;;
13171;SDS011;6651;53.200;10.432;2023-04-25T06:30:36;14.40;;;4.70;;
13171;SDS011;6651;53.200;10.432;2023-04-25T06:33:02;14.05;;;3.97;;
13171;SDS011;6651;53.200;10.432;2023-04-25T06:35:28;13.27;;;3.90;;
13171;SDS011;6651;53.200;10.432;2023-04-25T06:37:54;17.75;;;4.50;;
13171;SDS011;6651;53.200;10.432;2023-04-25T06:40:20;13.57;;;3.67;;
13171;SDS011;6651;53.200;10.432;2023-04-25T06:42:46;13.52;;;4.00;;
13171;SDS011;6651;53.200;10.432;2023-04-25T06:45:12;12.70;;;3.75;;
13171;SDS011;6651;53.200;10.432;2023-04-25T06:47:38;10.52;;;3.78;;
13171;SDS011;6651;53.200;10.432;2023-04-25T06:50:04;13.77;;;3.95;;
13171;SDS011;6651;53.200;10.432;2023-04-25T06:52:31;15.52;;;4.10;;
13171;SDS011;6651;53.200;10.432;2023-04-25T06:54:57;17.00;;;3.80;;
13171;SDS011;6651;53.200;10.432;2023-04-25T06:57:23;13.00;;;3.45;;
13171;SDS011;6651;53.200;10.432;2023-04-25T06:59:49;12.55;;;3.33;;
13171;SDS011;6651;53.200;10.432;2023-04-25T07:02:15;14.38;;;3.80;;
13171;SDS011;6651;53.200;10.432;2023-04-25T07:04:41;10.93;;;3.33;;
13171;SDS011;6651;53.200;10.432;2023-04-25T07:07:07;11.35;;;3.65;;
13171;SDS011;6651;53.200;10.432;2023-04-25T07:09:33;12.77;;;4.00;;
13171;SDS011;6651;53.200;10.432;2023-04-25T07:11:59;14.00;;;3.88;;
13171;SDS011;6651;53.200;10.432;2023-04-25T07:14:27;11.35;;;3.50;;
13171;SDS011;6651;53.200;10.432;2023-04-25T07:16:53;14.18;;;3.63;;
13171;SDS011;6651;53.200;10.432;2023-04-25T07:19:20;12.00;;;3.58;;
13171;SDS011;6651;53.200;10.432;2023-04-25T07:21:46;11.63;;;3.58;;
13171;SDS011;6651;53.200;10.432;2023-04-25T07:24:12;14.57;;;3.75;;
13171;SDS011;6651;53.200;10.432;2023-04-25T07:26:38;11.25;;;3.22;;
13171;SDS011;6651;53.200;10.432;2023-04-25T07:29:04;12.93;;;3.58;;
13171;SDS011;6651;53.200;10.432;2023-04-25T07:31:30;9.45;;;3.75;;
13171;SDS011;6651;53.200;10.432;2023-04-25T07:33:56;11.55;;;3.53;;
13171;SDS011;6651;53.200;10.432;2023-04-25T07:36:22;11.60;;;3.92;;
13171;SDS011;6651;53.200;10.432;2023-04-25T07:38:48;10.45;;;3.80;;
13171;SDS011;6651;53.200;10.432;2023-04-25T07:41:14;14.00;;;4.22;;
13171;SDS011;6651;53.200;10.432;2023-04-25T07:43:40;12.27;;;3.17;;
13171;SDS011;6651;53.200;10.432;2023-04-25T07:46:06;12.20;;;3.67;;
13171;SDS011;6651;53.200;10.432;2023-04-25T07:48:32;12.27;;;3.35;;
13171;SDS011;6651;53.200;10.432;2023-04-25T07:50:58;11.77;;;3.38;;
13171;SDS011;6651;53.200;10.432;2023-04-25T07:53:24;12.85;;;3.45;;
13171;SDS011;6651;53.200;10.432;2023-04-25T07:55:50;12.25;;;3.85;;
13171;SDS011;6651;53.200;10.432;2023-04-25T07:58:16;10.05;;;3.28;;
13171;SDS011;6651;53.200;10.432;2023-04-25T08:00:46;12.48;;;3.88;;
13171;SDS011;6651;53.200;10.432;2023-04-25T08:03:12;8.68;;;3.13;;
13171;SDS011;6651;53.200;10.432;2023-04-25T08:05:38;11.65;;;3.30;;
13171;SDS011;6651;53.200;10.432;2023-04-25T08:08:04;10.18;;;3.00;;
13171;SDS011;6651;53.200;10.432;2023-04-25T08:10:31;8.80;;;3.00;;
13171;SDS011;6651;53.200;10.432;2023-04-25T08:12:58;8.73;;;2.92;;
13171;SDS011;6651;53.200;10.432;2023-04-25T08:15:24;14.13;;;3.25;;
13171;SDS011;6651;53.200;10.432;2023-04-25T08:17:51;12.45;;;3.47;;
13171;SDS011;6651;53.200;10.432;2023-04-25T08:20:17;10.05;;;3.28;;
13171;SDS011;6651;53.200;10.432;2023-04-25T08:22:43;8.00;;;2.90;;
13171;SDS011;6651;53.200;10.432;2023-04-25T08:25:09;8.00;;;3.25;;
13171;SDS011;6651;53.200;10.432;2023-04-25T08:27:35;9.35;;;3.08;;
13171;SDS011;6651;53.200;10.432;2023-04-25T08:30:02;9.30;;;3.08;;
13171;SDS011;6651;53.200;10.432;2023-04-25T08:32:28;8.00;;;2.90;;
13171;SDS011;6651;53.200;10.432;2023-04-25T08:34:54;7.10;;;2.65;;
13171;SDS011;6651;53.200;10.432;2023-04-25T08:37:20;9.60;;;2.58;;
13171;SDS011;6651;53.200;10.432;2023-04-25T08:39:46;9.30;;;3.10;;
13171;SDS011;6651;53.200;10.432;2023-04-25T08:42:13;4.35;;;2.20;;
13171;SDS011;6651;53.200;10.432;2023-04-25T08:44:40;5.22;;;2.38;;
13171;SDS011;6651;53.200;10.432;2023-04-25T08:47:06;8.98;;;2.38;;
13171;SDS011;6651;53.200;10.432;2023-04-25T08:49:33;10.45;;;3.25;;
13171;SDS011;6651;53.200;10.432;2023-04-25T08:52:00;7.78;;;2.50;;
13171;SDS011;6651;53.200;10.432;2023-04-25T08:54:27;7.80;;;2.53;;
13171;SDS011;6651;53.200;10.432;2023-04-25T08:56:53;9.38;;;2.53;;
13171;SDS011;6651;53.200;10.432;2023-04-25T08:59:20;7.35;;;2.30;;
13171;SDS011;6651;53.200;10.432;2023-04-25T09:01:47;6.15;;;2.38;;
13171;SDS011;6651;53.200;10.432;2023-04-25T09:04:14;9.43;;;2.55;;
13171;SDS011;6651;53.200;10.432;2023-04-25T09:06:40;7.47;;;2.50;;
13171;SDS011;6651;53.200;10.432;2023-04-25T09:09:07;7.43;;;2.72;;
13171;SDS011;6651;53.200;10.432;2023-04-25T09:11:35;8.38;;;2.58;;
13171;SDS011;6651;53.200;10.432;2023-04-25T09:14:17;8.55;;;2.20;;
13171;SDS011;6651;53.200;10.432;2023-04-25T09:19:27;8.85;;;2.65;;
13171;SDS011;6651;53.200;10.432;2023-04-25T09:21:54;9.32;;;3.00;;
13171;SDS011;6651;53.200;10.432;2023-04-25T09:25:07;9.63;;;2.67;;
13171;SDS011;6651;53.200;10.432;2023-04-25T09:27:12;8.68;;;2.78;;
13171;SDS011;6651;53.200;10.432;2023-04-25T09:29:39;7.65;;;2.35;;
13171;SDS011;6651;53.200;10.432;2023-04-25T09:32:24;7.88;;;2.33;;
13171;SDS011;6651;53.200;10.432;2023-04-25T09:34:51;6.05;;;2.00;;
13171;SDS011;6651;53.200;10.432;2023-04-25T09:37:21;3.88;;;1.70;;
13171;SDS011;6651;53.200;10.432;2023-04-25T09:39:48;3.35;;;1.45;;
13171;SDS011;6651;53.200;10.432;2023-04-25T09:42:15;4.32;;;1.40;;
13171;SDS011;6651;53.200;10.432;2023-04-25T09:44:42;3.83;;;1.60;;
13171;SDS011;6651;53.200;10.432;2023-04-25T09:47:09;5.10;;;1.70;;
13171;SDS011;6651;53.200;10.432;2023-04-25T09:49:38;6.53;;;2.08;;
13171;SDS011;6651;53.200;10.432;2023-04-25T09:52:05;4.55;;;1.85;;
13171;SDS011;6651;53.200;10.432;2023-04-25T09:54:31;5.50;;;2.20;;
13171;SDS011;6651;53.200;10.432;2023-04-25T09:56:57;5.00;;;1.88;;
13171;SDS011;6651;53.200;10.432;2023-04-25T09:59:25;6.88;;;2.35;;
13171;SDS011;6651;53.200;10.432;2023-04-25T10:01:52;7.60;;;2.08;;
13171;SDS011;6651;53.200;10.432;2023-04-25T10:04:20;7.10;;;2.03;;
13171;SDS011;6651;53.200;10.432;2023-04-25T10:06:48;8.68;;;2.30;;
13171;SDS011;6651;53.200;10.432;2023-04-25T10:09:21;8.63;;;2.30;;
13171;SDS011;6651;53.200;10.432;2023-04-25T10:11:51;9.13;;;2.25;;
13171;SDS011;6651;53.200;10.432;2023-04-25T10:14:18;8.70;;;2.35;;
13171;SDS011;6651;53.200;10.432;2023-04-25T10:16:45;6.72;;;2.17;;
13171;SDS011;6651;53.200;10.432;2023-04-25T10:19:11;6.70;;;2.28;;
13171;SDS011;6651;53.200;10.432;2023-04-25T10:21:44;9.05;;;2.50;;
13171;SDS011;6651;53.200;10.432;2023-04-25T10:24:12;8.25;;;2.55;;
13171;SDS011;6651;53.200;10.432;2023-04-25T10:26:38;5.22;;;2.17;;
13171;SDS011;6651;53.200;10.432;2023-04-25T10:29:04;7.75;;;2.67;;
13171;SDS011;6651;53.200;10.432;2023-04-25T10:31:30;4.10;;;2.03;;
13171;SDS011;6651;53.200;10.432;2023-04-25T10:33:56;5.88;;;1.77;;
13171;SDS011;6651;53.200;10.432;2023-04-25T10:36:23;9.30;;;2.45;;
13171;SDS011;6651;53.200;10.432;2023-04-25T10:38:52;4.40;;;1.85;;
13171;SDS011;6651;53.200;10.432;2023-04-25T10:41:19;4.35;;;1.50;;
13171;SDS011;6651;53.200;10.432;2023-04-25T10:43:46;7.05;;;1.92;;
13171;SDS011;6651;53.200;10.432;2023-04-25T10:46:13;5.97;;;1.85;;
13171;SDS011;6651;53.200;10.432;2023-04-25T10:48:43;6.80;;;2.00;;
13171;SDS011;6651;53.200;10.432;2023-04-25T10:51:11;5.80;;;2.00;;
13171;SDS011;6651;53.200;10.432;2023-04-25T10:53:38;7.53;;;2.35;;
13171;SDS011;6651;53.200;10.432;2023-04-25T10:56:16;6.63;;;2.03;;
13171;SDS011;6651;53.200;10.432;2023-04-25T10:58:46;7.95;;;2.00;;
13171;SDS011;6651;53.200;10.432;2023-04-25T11:01:12;7.07;;;2.35;;
13171;SDS011;6651;53.200;10.432;2023-04-25T11:03:42;6.18;;;2.20;;
13171;SDS011;6651;53.200;10.432;2023-04-25T11:06:15;5.65;;;2.05;;
13171;SDS011;6651;53.200;10.432;2023-04-25T11:08:48;7.20;;;2.00;;
13171;SDS011;6651;53.200;10.432;2023-04-25T11:11:15;6.57;;;2.05;;
13171;SDS011;6651;53.200;10.432;2023-04-25T11:13:42;5.40;;;2.13;;
13171;SDS011;6651;53.200;10.432;2023-04-25T11:16:08;8.30;;;2.30;;
13171;SDS011;6651;53.200;10.432;2023-04-25T11:18:34;5.38;;;2.13;;
13171;SDS011;6651;53.200;10.432;2023-04-25T11:21:00;5.15;;;1.90;;
13171;SDS011;6651;53.200;10.432;2023-04-25T11:23:28;7.07;;;2.20;;
13171;SDS011;6651;53.200;10.432;2023-04-25T11:25:55;6.25;;;1.92;;
13171;SDS011;6651;53.200;10.432;2023-04-25T11:28:22;7.22;;;2.08;;
13171;SDS011;6651;53.200;10.432;2023-04-25T11:30:49;7.78;;;2.30;;
13171;SDS011;6651;53.200;10.432;2023-04-25T11:33:15;7.22;;;2.28;;
13171;SDS011;6651;53.200;10.432;2023-04-25T11:35:41;7.28;;;2.15;;
13171;SDS011;6651;53.200;10.432;2023-04-25T11:38:08;6.40;;;2.00;;
13171;SDS011;6651;53.200;10.432;2023-04-25T11:40:35;6.00;;;2.08;;
13171;SDS011;6651;53.200;10.432;2023-04-25T11:43:01;8.68;;;2.33;;
13171;SDS011;6651;53.200;10.432;2023-04-25T11:45:27;7.55;;;2.30;;
13171;SDS011;6651;53.200;10.432;2023-04-25T11:47:55;7.53;;;2.17;;
13171;SDS011;6651;53.200;10.432;2023-04-25T11:50:21;5.18;;;2.20;;
13171;SDS011;6651;53.200;10.432;2023-04-25T11:52:47;5.35;;;2.00;;
13171;SDS011;6651;53.200;10.432;2023-04-25T11:55:15;6.03;;;1.80;;
13171;SDS011;6651;53.200;10.432;2023-04-25T11:57:41;6.45;;;1.83;;
13171;SDS011;6651;53.200;10.432;2023-04-25T12:02:45;6.68;;;1.77;;
13171;SDS011;6651;53.200;10.432;2023-04-25T12:05:12;3.85;;;1.80;;
13171;SDS011;6651;53.200;10.432;2023-04-25T12:07:38;8.23;;;2.05;;
13171;SDS011;6651;53.200;10.432;2023-04-25T12:12:33;8.88;;;2.10;;
13171;SDS011;6651;53.200;10.432;2023-04-25T12:15:09;6.35;;;1.95;;
13171;SDS011;6651;53.200;10.432;2023-04-25T12:17:36;5.55;;;1.45;;
13171;SDS011;6651;53.200;10.432;2023-04-25T12:20:09;5.90;;;1.77;;
13171;SDS011;6651;53.200;10.432;2023-04-25T12:22:35;4.10;;;1.77;;
13171;SDS011;6651;53.200;10.432;2023-04-25T12:25:02;7.03;;;2.10;;
13171;SDS011;6651;53.200;10.432;2023-04-25T12:27:30;8.65;;;2.25;;
13171;SDS011;6651;53.200;10.432;2023-04-25T12:29:56;5.13;;;1.95;;
13171;SDS011;6651;53.200;10.432;2023-04-25T12:32:23;6.80;;;2.13;;
13171;SDS011;6651;53.200;10.432;2023-04-25T12:34:49;6.88;;;2.17;;
13171;SDS011;6651;53.200;10.432;2023-04-25T12:37:15;5.68;;;2.05;;
13171;SDS011;6651;53.200;10.432;2023-04-25T12:39:41;7.78;;;2.08;;
13171;SDS011;6651;53.200;10.432;2023-04-25T12:42:07;8.00;;;1.92;;
13171;SDS011;6651;53.200;10.432;2023-04-25T12:44:36;4.55;;;1.95;;
13171;SDS011;6651;53.200;10.432;2023-04-25T12:47:02;5.75;;;2.00;;
13171;SDS011;6651;53.200;10.432;2023-04-25T12:49:29;5.28;;;1.98;;
13171;SDS011;6651;53.200;10.432;2023-04-25T12:51:55;6.47;;;2.38;;
13171;SDS011;6651;53.200;10.432;2023-04-25T12:54:21;7.93;;;2.30;;
13171;SDS011;6651;53.200;10.432;2023-04-25T12:56:47;5.75;;;1.80;;
13171;SDS011;6651;53.200;10.432;2023-04-25T12:59:13;6.30;;;2.40;;
13171;SDS011;6651;53.200;10.432;2023-04-25T13:01:39;10.65;;;5.10;;
13171;SDS011;6651;53.200;10.432;2023-04-25T13:04:05;11.88;;;5.97;;
13171;SDS011;6651;53.200;10.432;2023-04-25T13:06:31;11.18;;;6.07;;
13171;SDS011;6651;53.200;10.432;2023-04-25T13:08:57;5.43;;;2.67;;
13171;SDS011;6651;53.200;10.432;2023-04-25T13:11:23;4.40;;;1.65;;
13171;SDS011;6651;53.200;10.432;2023-04-25T13:13:49;7.10;;;1.98;;
13171;SDS011;6651;53.200;10.432;2023-04-25T13:16:15;7.95;;;2.28;;
13171;SDS011;6651;53.200;10.432;2023-04-25T13:18:41;4.15;;;1.80;;
13171;SDS011;6651;53.200;10.432;2023-04-25T13:21:09;5.47;;;2.65;;
13171;SDS011;6651;53.200;10.432;2023-04-25T13:23:36;6.10;;;2.20;;
13171;SDS011;6651;53.200;10.432;2023-04-25T13:26:02;6.80;;;2.42;;
13171;SDS011;6651;53.200;10.432;2023-04-25T13:28:28;8.82;;;2.50;;
13171;SDS011;6651;53.200;10.432;2023-04-25T13:30:54;7.15;;;2.70;;
13171;SDS011;6651;53.200;10.432;2023-04-25T13:33:20;5.65;;;1.77;;
13171;SDS011;6651;53.200;10.432;2023-04-25T13:35:47;4.13;;;1.58;;
13171;SDS011;6651;53.200;10.432;2023-04-25T13:38:22;4.20;;;2.00;;
13171;SDS011;6651;53.200;10.432;2023-04-25T13:40:48;5.65;;;1.70;;
13171;SDS011;6651;53.200;10.432;2023-04-25T13:43:17;5.50;;;1.63;;
13171;SDS011;6651;53.200;10.432;2023-04-25T13:45:43;5.03;;;2.05;;
13171;SDS011;6651;53.200;10.432;2023-04-25T13:48:09;5.68;;;1.90;;
13171;SDS011;6651;53.200;10.432;2023-04-25T13:50:35;5.20;;;2.22;;
13171;SDS011;6651;53.200;10.432;2023-04-25T13:53:01;3.97;;;1.30;;
13171;SDS011;6651;53.200;10.432;2023-04-25T13:55:27;4.55;;;1.77;;
13171;SDS011;6651;53.200;10.432;2023-04-25T13:57:53;4.03;;;1.65;;
13171;SDS011;6651;53.200;10.432;2023-04-25T14:00:19;6.40;;;2.03;;
13171;SDS011;6651;53.200;10.432;2023-04-25T14:02:46;5.90;;;1.83;;
13171;SDS011;6651;53.200;10.432;2023-04-25T14:05:12;4.15;;;1.75;;
13171;SDS011;6651;53.200;10.432;2023-04-25T14:07:38;3.65;;;1.50;;
13171;SDS011;6651;53.200;10.432;2023-04-25T14:10:04;4.22;;;1.70;;
13171;SDS011;6651;53.200;10.432;2023-04-25T14:12:32;6.78;;;1.73;;
13171;SDS011;6651;53.200;10.432;2023-04-25T14:14:58;4.63;;;1.65;;
13171;SDS011;6651;53.200;10.432;2023-04-25T14:17:25;6.75;;;2.25;;
13171;SDS011;6651;53.200;10.432;2023-04-25T14:19:51;5.80;;;2.13;;
13171;SDS011;6651;53.200;10.432;2023-04-25T14:22:17;7.63;;;1.88;;
13171;SDS011;6651;53.200;10.432;2023-04-25T14:24:43;5.20;;;2.17;;
13171;SDS011;6651;53.200;10.432;2023-04-25T14:27:10;7.85;;;2.20;;
13171;SDS011;6651;53.200;10.432;2023-04-25T14:29:36;4.68;;;2.10;;
13171;SDS011;6651;53.200;10.432;2023-04-25T14:32:02;4.35;;;1.90;;
13171;SDS011;6651;53.200;10.432;2023-04-25T14:34:30;6.28;;;1.95;;
13171;SDS011;6651;53.200;10.432;2023-04-25T14:36:56;6.90;;;2.30;;
13171;SDS011;6651;53.200;10.432;2023-04-25T14:39:22;4.75;;;1.90;;
13171;SDS011;6651;53.200;10.432;2023-04-25T14:41:48;9.40;;;2.25;;
13171;SDS011;6651;53.200;10.432;2023-04-25T14:44:14;6.32;;;1.90;;
13171;SDS011;6651;53.200;10.432;2023-04-25T14:46:40;6.25;;;2.33;;
13171;SDS011;6651;53.200;10.432;2023-04-25T14:49:06;5.03;;;1.95;;
13171;SDS011;6651;53.200;10.432;2023-04-25T14:51:32;9.10;;;2.10;;